createdAt,value
2019-03-25T00:01:21.171Z,5.40
2019-03-25T00:03:51.502Z,5.40
2019-03-25T00:06:21.289Z,5.30
2019-03-25T00:09:04.514Z,5.30
2019-03-25T00:11:22.557Z,5.30
2019-03-25T00:13:52.384Z,5.20
2019-03-25T00:16:22.291Z,5.20
2019-03-25T00:18:52.108Z,5.20
2019-03-25T00:21:21.759Z,5.20
2019-03-25T00:23:51.629Z,5.20
2019-03-25T00:26:21.432Z,5.20
2019-03-25T00:28:51.251Z,5.30
2019-03-25T00:31:21.051Z,5.20
2019-03-25T00:33:51.098Z,5.30
2019-03-25T00:36:20.876Z,5.30
2019-03-25T00:38:50.929Z,5.30
2019-03-25T00:41:21.044Z,5.30
2019-03-25T00:43:50.850Z,5.20
2019-03-25T00:46:20.647Z,5.20
2019-03-25T00:48:50.890Z,5.10
2019-03-25T00:51:20.675Z,5.00
2019-03-25T00:53:50.599Z,4.90
2019-03-25T00:56:20.759Z,4.90
2019-03-25T00:58:50.957Z,4.80
2019-03-25T01:01:20.746Z,4.80
2019-03-25T01:03:50.647Z,4.70
2019-03-25T01:06:20.631Z,4.60
2019-03-25T01:08:50.514Z,4.60
2019-03-25T01:11:20.305Z,4.50
2019-03-25T01:13:50.439Z,4.50
2019-03-25T01:16:20.267Z,4.50
2019-03-25T01:18:50.064Z,4.50
2019-03-25T01:21:19.708Z,4.40
2019-03-25T01:23:49.381Z,4.40
2019-03-25T01:26:19.230Z,4.30
2019-03-25T01:28:48.912Z,4.30
2019-03-25T01:31:18.938Z,4.30
2019-03-25T01:33:48.606Z,4.30
2019-03-25T01:36:18.319Z,4.30
2019-03-25T01:38:48.358Z,4.40
2019-03-25T01:41:18.002Z,4.40
2019-03-25T01:43:47.994Z,4.40
2019-03-25T01:46:17.650Z,4.40
2019-03-25T01:48:47.322Z,4.40
2019-03-25T01:51:16.977Z,4.40
2019-03-25T01:53:46.647Z,4.40
2019-03-25T01:58:57.968Z,4.70
2019-03-25T02:01:27.722Z,4.80
2019-03-25T02:03:57.538Z,4.90
2019-03-25T02:06:27.864Z,5.10
2019-03-25T02:08:57.982Z,5.20
2019-03-25T02:11:28.127Z,5.30
2019-03-25T02:13:57.911Z,5.40
2019-03-25T02:16:27.570Z,5.50
2019-03-25T02:18:57.434Z,5.50
2019-03-25T02:21:27.222Z,5.70
2019-03-25T02:23:57.295Z,5.70
2019-03-25T02:26:46.212Z,5.80
2019-03-25T02:29:15.890Z,5.90
2019-03-25T02:31:45.551Z,5.90
2019-03-25T02:34:15.220Z,6.00
2019-03-25T02:36:44.869Z,6.00
2019-03-25T02:39:14.877Z,6.10
2019-03-25T02:41:44.527Z,6.10
2019-03-25T02:44:14.197Z,6.10
2019-03-25T02:46:44.281Z,6.10
2019-03-25T02:49:13.939Z,6.10
2019-03-25T02:51:43.580Z,6.20
2019-03-25T02:54:13.256Z,6.20
2019-03-25T02:56:43.263Z,6.30
2019-03-25T02:59:12.931Z,6.20
2019-03-25T03:01:42.583Z,6.30
2019-03-25T03:04:12.256Z,6.20
2019-03-25T03:06:41.899Z,6.20
2019-03-25T03:09:11.646Z,6.20
2019-03-25T03:11:41.622Z,6.00
2019-03-25T03:14:15.035Z,5.90
2019-03-25T03:16:43.507Z,5.70
2019-03-25T03:19:13.186Z,5.50
2019-03-25T03:21:42.831Z,5.30
2019-03-25T03:24:12.511Z,4.80
2019-03-25T03:26:42.159Z,4.60
2019-03-25T03:29:11.838Z,4.40
2019-03-25T03:31:41.495Z,4.30
2019-03-25T03:34:11.167Z,4.30
2019-03-25T03:36:40.824Z,4.20
2019-03-25T03:39:10.793Z,4.30
2019-03-25T03:41:40.805Z,4.30
2019-03-25T03:44:10.484Z,4.30
2019-03-25T03:46:40.140Z,4.30
2019-03-25T03:49:10.443Z,4.40
2019-03-25T03:51:40.248Z,4.40
2019-03-25T03:54:10.376Z,4.50
2019-03-25T03:56:40.147Z,4.50
2019-03-25T03:59:09.810Z,4.60
2019-03-25T04:01:39.502Z,4.60
2019-03-25T04:04:09.180Z,4.70
2019-03-25T04:06:38.846Z,4.60
2019-03-25T04:09:08.541Z,4.60
2019-03-25T04:11:38.204Z,4.60
2019-03-25T04:14:08.264Z,4.60
2019-03-25T04:16:37.922Z,4.50
2019-03-25T04:19:07.983Z,4.50
2019-03-25T04:21:37.798Z,4.40
2019-03-25T04:24:07.548Z,4.50
2019-03-25T04:26:37.419Z,4.50
2019-03-25T04:29:07.216Z,4.40
2019-03-25T04:31:37.279Z,4.50
2019-03-25T04:34:06.937Z,4.60
2019-03-25T04:36:36.747Z,4.50
2019-03-25T04:39:08.268Z,4.50
2019-03-25T04:41:38.340Z,4.60
2019-03-25T04:44:08.132Z,4.60
2019-03-25T04:46:37.822Z,4.60
2019-03-25T04:49:07.621Z,4.70
2019-03-25T04:51:37.677Z,4.70
2019-03-25T04:54:07.595Z,4.80
2019-03-25T04:56:39.979Z,4.80
2019-03-25T04:59:08.808Z,4.80
2019-03-25T05:01:38.501Z,4.80
2019-03-25T05:04:08.158Z,4.80
2019-03-25T05:06:37.831Z,4.80
2019-03-25T05:09:07.690Z,4.80
2019-03-25T05:11:37.518Z,4.80
2019-03-25T05:14:07.312Z,4.80
2019-03-25T05:16:36.991Z,4.80
2019-03-25T05:19:06.845Z,4.90
2019-03-25T05:21:36.663Z,4.90
2019-03-25T05:24:06.447Z,4.90
2019-03-25T05:26:36.410Z,5.00
2019-03-25T05:29:06.451Z,5.00
2019-03-25T05:31:36.138Z,5.00
2019-03-25T05:34:05.808Z,5.00
2019-03-25T05:36:35.850Z,4.90
2019-03-25T05:39:07.754Z,4.80
2019-03-25T05:41:37.511Z,4.80
2019-03-25T05:44:07.539Z,4.70
2019-03-25T05:46:37.226Z,4.70
2019-03-25T05:49:06.983Z,4.70
2019-03-25T05:51:36.671Z,4.70
2019-03-25T05:54:06.504Z,4.80
2019-03-25T05:56:36.196Z,4.90
2019-03-25T05:59:05.857Z,4.90
2019-03-25T06:01:35.538Z,5.00
2019-03-25T06:04:05.266Z,5.10
2019-03-25T06:06:34.959Z,5.20
2019-03-25T06:09:05.760Z,5.30
2019-03-25T06:11:35.446Z,5.30
2019-03-25T06:14:05.242Z,5.40
2019-03-25T06:16:35.051Z,5.40
2019-03-25T06:19:04.706Z,5.40
2019-03-25T06:21:34.307Z,5.40
2019-03-25T06:24:04.059Z,5.40
2019-03-25T06:26:33.722Z,5.40
2019-03-25T06:29:03.395Z,5.60
2019-03-25T06:31:33.563Z,5.60
2019-03-25T06:34:03.354Z,5.70
2019-03-25T06:36:33.306Z,5.80
2019-03-25T06:39:03.642Z,5.70
2019-03-25T06:41:33.419Z,5.60
2019-03-25T06:44:03.210Z,5.60
2019-03-25T06:46:33.289Z,5.70
2019-03-25T06:49:03.184Z,5.70
2019-03-25T06:51:32.811Z,5.70
2019-03-25T06:54:02.666Z,6.00
2019-03-25T06:56:32.806Z,6.30
2019-03-25T06:59:02.595Z,6.70
2019-03-25T07:01:32.635Z,6.90
2019-03-25T07:04:02.679Z,6.90
2019-03-25T07:06:32.875Z,7.00
2019-03-25T07:09:04.026Z,7.10
2019-03-25T07:11:33.867Z,7.30
2019-03-25T07:14:04.012Z,7.10
2019-03-25T07:16:34.171Z,7.00
2019-03-25T07:19:04.293Z,6.90
2019-03-25T07:21:33.943Z,6.70
2019-03-25T07:24:03.617Z,6.60
2019-03-25T07:26:33.624Z,6.60
2019-03-25T07:29:03.296Z,6.50
2019-03-25T07:31:33.454Z,6.60
2019-03-25T07:34:03.258Z,6.70
2019-03-25T07:36:33.387Z,7.00
2019-03-25T07:39:03.370Z,7.10
2019-03-25T07:41:33.192Z,7.40
2019-03-25T07:44:02.895Z,7.40
2019-03-25T07:46:32.722Z,7.10
2019-03-25T07:49:03.073Z,6.90
2019-03-25T07:51:32.946Z,6.80
2019-03-25T07:54:03.123Z,7.00
2019-03-25T07:56:33.241Z,7.20
2019-03-25T07:59:03.542Z,7.40
2019-03-25T08:01:33.659Z,7.50
2019-03-25T08:04:03.469Z,8.00
2019-03-25T08:06:33.806Z,8.20
2019-03-25T08:09:04.269Z,8.50
2019-03-25T08:11:34.137Z,8.80
2019-03-25T08:14:03.788Z,8.90
2019-03-25T08:16:33.736Z,8.70
2019-03-25T08:19:03.570Z,8.40
2019-03-25T08:21:33.795Z,8.30
2019-03-25T08:24:03.935Z,8.20
2019-03-25T08:26:33.695Z,8.20
2019-03-25T08:29:03.537Z,8.20
2019-03-25T08:31:33.326Z,8.10
2019-03-25T08:34:03.099Z,8.00
2019-03-25T08:36:32.807Z,7.80
2019-03-25T08:39:02.684Z,8.00
2019-03-25T08:41:32.446Z,8.30
2019-03-25T08:44:02.314Z,8.20
2019-03-25T08:46:31.960Z,7.90
2019-03-25T08:49:01.635Z,7.60
2019-03-25T08:51:31.287Z,7.30
2019-03-25T08:54:00.963Z,7.00
2019-03-25T08:56:30.615Z,6.80
2019-03-25T08:59:00.287Z,6.70
2019-03-25T09:01:29.939Z,6.60
2019-03-25T09:03:59.722Z,6.50
2019-03-25T09:06:29.700Z,6.40
2019-03-25T09:08:59.375Z,6.40
2019-03-25T09:11:29.025Z,6.40
2019-03-25T09:13:58.764Z,6.30
2019-03-25T09:16:28.414Z,6.40
2019-03-25T09:18:58.023Z,6.40
2019-03-25T09:21:27.670Z,6.60
2019-03-25T09:23:58.219Z,6.70
2019-03-25T09:26:27.937Z,7.00
2019-03-25T09:28:57.882Z,7.40
2019-03-25T09:31:36.449Z,7.70
2019-03-25T09:33:59.167Z,7.90
2019-03-25T09:36:28.816Z,8.10
2019-03-25T09:38:58.500Z,8.40
2019-03-25T09:41:28.142Z,8.60
2019-03-25T09:43:57.834Z,8.60
2019-03-25T09:46:27.991Z,8.60
2019-03-25T09:48:57.756Z,8.70
2019-03-25T09:51:27.479Z,8.70
2019-03-25T09:53:57.246Z,8.50
2019-03-25T09:56:26.921Z,8.40
2019-03-25T09:58:57.141Z,8.30
2019-03-25T10:01:26.819Z,8.00
2019-03-25T10:03:56.543Z,7.60
2019-03-25T10:06:26.520Z,7.30
2019-03-25T10:08:56.168Z,7.10
2019-03-25T10:11:25.841Z,6.90
2019-03-25T10:13:55.507Z,6.70
2019-03-25T10:16:25.184Z,7.00
2019-03-25T10:18:54.830Z,7.50
2019-03-25T10:21:24.508Z,7.80
2019-03-25T10:23:54.207Z,8.20
2019-03-25T10:26:23.858Z,8.80
2019-03-25T10:28:53.507Z,8.90
2019-03-25T10:31:23.285Z,9.00
2019-03-25T10:33:52.928Z,9.10
2019-03-25T10:36:22.706Z,9.20
2019-03-25T10:38:52.623Z,9.20
2019-03-25T10:41:22.471Z,9.20
2019-03-25T10:43:52.247Z,9.00
2019-03-25T10:46:21.916Z,9.20
2019-03-25T10:49:04.128Z,9.00
2019-03-25T10:51:33.894Z,8.80
2019-03-25T10:54:03.972Z,8.70
2019-03-25T10:56:33.818Z,8.60
2019-03-25T10:59:04.179Z,8.70
2019-03-25T11:01:33.851Z,8.90
2019-03-25T11:04:03.904Z,9.20
2019-03-25T11:06:33.684Z,9.40
2019-03-25T11:09:05.015Z,9.60
2019-03-25T11:11:34.816Z,9.90
2019-03-25T11:14:04.920Z,10.50
2019-03-25T11:16:34.679Z,10.70
2019-03-25T11:19:04.479Z,10.70
2019-03-25T11:21:34.636Z,10.40
2019-03-25T11:24:04.595Z,9.80
2019-03-25T11:26:34.437Z,9.40
2019-03-25T11:29:08.587Z,9.00
2019-03-25T11:31:36.000Z,8.70
2019-03-25T11:34:05.856Z,8.50
2019-03-25T11:36:35.732Z,8.50
2019-03-25T11:39:08.164Z,8.50
2019-03-25T11:41:38.081Z,8.20
2019-03-25T11:44:08.040Z,8.10
2019-03-25T11:46:37.922Z,8.00
2019-03-25T11:49:08.099Z,8.10
2019-03-25T11:51:38.048Z,8.30
2019-03-25T11:54:07.700Z,8.60
2019-03-25T11:56:37.506Z,9.00
2019-03-25T11:59:07.288Z,9.20
2019-03-25T12:01:37.130Z,9.40
2019-03-25T12:04:06.951Z,9.20
2019-03-25T12:06:36.759Z,9.20
2019-03-25T12:09:08.750Z,9.50
2019-03-25T12:11:38.431Z,9.30
2019-03-25T12:14:08.447Z,9.10
2019-03-25T12:16:38.099Z,8.60
2019-03-25T12:19:07.790Z,8.40
2019-03-25T12:21:37.539Z,8.50
2019-03-25T12:24:07.728Z,8.60
2019-03-25T12:26:37.371Z,9.00
2019-03-25T12:29:07.053Z,8.90
2019-03-25T12:31:36.919Z,9.00
2019-03-25T12:34:06.742Z,9.10
2019-03-25T12:36:36.494Z,9.20
2019-03-25T12:39:07.121Z,9.20
2019-03-25T12:41:36.838Z,8.80
2019-03-25T12:44:06.505Z,8.70
2019-03-25T12:46:36.683Z,8.80
2019-03-25T12:49:06.506Z,8.70
2019-03-25T12:51:36.407Z,8.40
2019-03-25T12:54:06.235Z,8.60
2019-03-25T12:56:35.902Z,8.50
2019-03-25T12:59:06.095Z,8.50
2019-03-25T13:01:36.247Z,8.40
2019-03-25T13:04:06.255Z,8.50
2019-03-25T13:06:36.039Z,8.10
2019-03-25T13:09:07.223Z,7.60
2019-03-25T13:11:36.986Z,7.40
2019-03-25T13:14:06.711Z,7.30
2019-03-25T13:16:36.613Z,7.20
2019-03-25T13:19:06.513Z,7.20
2019-03-25T13:21:36.684Z,7.20
2019-03-25T13:24:06.439Z,7.30
2019-03-25T13:26:36.272Z,7.30
2019-03-25T13:29:06.065Z,7.30
2019-03-25T13:31:35.736Z,7.40
2019-03-25T13:34:05.696Z,7.50
2019-03-25T13:36:36.179Z,7.70
2019-03-25T13:39:07.256Z,7.90
2019-03-25T13:41:37.108Z,7.90
2019-03-25T13:44:06.763Z,8.00
2019-03-25T13:46:36.439Z,8.10
2019-03-25T13:49:06.114Z,8.20
2019-03-25T13:51:35.776Z,8.20
2019-03-25T13:54:06.992Z,8.40
2019-03-25T13:56:36.795Z,8.50
2019-03-25T13:59:06.472Z,8.50
2019-03-25T14:01:36.125Z,8.60
2019-03-25T14:04:05.805Z,8.80
2019-03-25T14:06:35.451Z,8.70
2019-03-25T14:09:06.582Z,8.60
2019-03-25T14:11:36.494Z,8.60
2019-03-25T14:14:06.282Z,8.60
2019-03-25T14:16:35.950Z,8.50
2019-03-25T14:19:05.918Z,8.50
2019-03-25T14:21:35.739Z,8.40
2019-03-25T14:24:05.522Z,8.10
2019-03-25T14:26:35.340Z,7.90
2019-03-25T14:29:05.196Z,7.80
2019-03-25T14:31:34.843Z,7.80
2019-03-25T14:34:04.487Z,7.80
2019-03-25T14:36:34.179Z,7.90
2019-03-25T14:39:06.676Z,7.90
2019-03-25T14:41:36.605Z,7.50
2019-03-25T14:44:06.731Z,7.40
2019-03-25T14:46:37.647Z,7.20
2019-03-25T14:49:09.858Z,7.10
2019-03-25T14:51:39.111Z,7.00
2019-03-25T14:54:08.775Z,6.90
2019-03-25T14:56:38.427Z,6.80
2019-03-25T14:59:08.250Z,6.70
2019-03-25T15:01:37.952Z,6.70
2019-03-25T15:04:07.694Z,6.60
2019-03-25T15:06:37.382Z,6.70
2019-03-25T15:09:07.770Z,7.00
2019-03-25T15:11:37.918Z,7.30
2019-03-25T15:14:07.565Z,7.60
2019-03-25T15:16:37.251Z,7.80
2019-03-25T15:19:07.457Z,7.80
2019-03-25T15:21:37.267Z,7.60
2019-03-25T15:24:07.075Z,7.30
2019-03-25T15:26:36.724Z,7.00
2019-03-25T15:29:06.615Z,6.80
2019-03-25T15:31:36.326Z,6.60
2019-03-25T15:34:05.969Z,6.50
2019-03-25T15:36:35.659Z,6.40
2019-03-25T15:39:07.748Z,6.40
2019-03-25T15:41:37.412Z,6.30
2019-03-25T15:44:07.207Z,6.30
2019-03-25T15:46:36.969Z,6.30
2019-03-25T15:49:06.995Z,6.30
2019-03-25T15:51:36.882Z,6.30
2019-03-25T15:54:06.508Z,6.30
2019-03-25T15:56:36.233Z,6.30
2019-03-25T15:59:06.401Z,6.40
2019-03-25T16:01:36.539Z,6.40
2019-03-25T16:04:06.210Z,6.40
2019-03-25T16:06:35.862Z,6.40
2019-03-25T16:09:07.903Z,6.40
2019-03-25T16:11:37.649Z,6.40
2019-03-25T16:14:07.862Z,6.40
2019-03-25T16:16:37.933Z,6.40
2019-03-25T16:19:07.766Z,6.40
2019-03-25T16:21:37.591Z,6.50
2019-03-25T16:24:07.382Z,6.40
2019-03-25T16:26:37.171Z,6.40
2019-03-25T16:29:06.839Z,6.40
2019-03-25T16:31:36.695Z,6.50
2019-03-25T16:34:06.525Z,6.50
2019-03-25T16:36:36.652Z,6.40
2019-03-25T16:39:07.995Z,6.40
2019-03-25T16:41:37.748Z,6.50
2019-03-25T16:44:07.615Z,6.40
2019-03-25T16:46:37.409Z,6.40
2019-03-25T16:49:07.239Z,6.50
2019-03-25T16:51:37.027Z,6.60
2019-03-25T16:54:06.868Z,6.60
2019-03-25T16:56:36.995Z,6.60
2019-03-25T16:59:12.007Z,6.70
2019-03-25T17:01:39.363Z,6.70
2019-03-25T17:04:09.404Z,6.60
2019-03-25T17:06:39.184Z,6.60
2019-03-25T17:09:08.890Z,6.70
2019-03-25T17:11:38.637Z,6.80
2019-03-25T17:14:08.439Z,6.90
2019-03-25T17:16:38.415Z,7.10
2019-03-25T17:19:08.338Z,7.20
2019-03-25T17:21:38.087Z,7.10
2019-03-25T17:24:07.750Z,7.00
2019-03-25T17:26:42.230Z,6.90
2019-03-25T17:29:09.053Z,6.80
2019-03-25T17:31:38.834Z,6.60
2019-03-25T17:34:08.988Z,6.50
2019-03-25T17:36:38.741Z,6.40
2019-03-25T17:39:09.384Z,6.30
2019-03-25T17:41:39.652Z,6.20
2019-03-25T17:44:11.170Z,6.10
2019-03-25T17:46:41.220Z,6.00
2019-03-25T17:49:11.715Z,6.00
2019-03-25T17:51:41.644Z,5.90
2019-03-25T17:54:11.843Z,5.80
2019-03-25T17:56:43.699Z,5.80
2019-03-25T17:59:13.851Z,5.80
2019-03-25T18:01:43.851Z,5.90
2019-03-25T18:04:15.255Z,5.90
2019-03-25T18:06:46.718Z,6.00
2019-03-25T18:09:16.811Z,6.10
2019-03-25T18:11:47.235Z,6.10
2019-03-25T18:14:17.991Z,6.00
2019-03-25T18:16:48.047Z,6.10
2019-03-25T18:19:18.743Z,6.20
2019-03-25T18:21:49.407Z,6.20
2019-03-25T18:24:20.029Z,6.40
2019-03-25T18:26:50.006Z,6.50
2019-03-25T18:29:19.898Z,6.50
2019-03-25T18:31:50.284Z,6.60
2019-03-25T18:34:20.380Z,6.70
2019-03-25T18:36:50.157Z,6.60
2019-03-25T18:39:20.029Z,6.70
2019-03-25T18:41:49.895Z,6.70
2019-03-25T18:44:19.562Z,6.70
2019-03-25T18:46:49.520Z,6.70
2019-03-25T18:49:19.307Z,6.80
2019-03-25T18:51:49.006Z,6.90
2019-03-25T18:54:18.626Z,6.80
2019-03-25T18:56:48.280Z,6.90
2019-03-25T18:59:17.950Z,6.90
2019-03-25T19:01:54.466Z,6.90
2019-03-25T19:04:19.429Z,6.90
2019-03-25T19:06:49.388Z,6.90
2019-03-25T19:09:19.232Z,6.90
2019-03-25T19:11:48.935Z,7.00
2019-03-25T19:14:18.991Z,7.00
2019-03-25T19:16:48.798Z,7.00
2019-03-25T19:19:18.594Z,7.00
2019-03-25T19:21:48.623Z,7.00
2019-03-25T19:24:18.519Z,7.00
2019-03-25T19:26:48.364Z,7.00
2019-03-25T19:29:18.318Z,7.00
2019-03-25T19:31:48.200Z,7.00
2019-03-25T19:34:19.160Z,6.90
2019-03-25T19:36:49.309Z,7.00
2019-03-25T19:39:19.796Z,7.00
2019-03-25T19:41:49.670Z,7.00
2019-03-25T19:44:21.093Z,7.00
2019-03-25T19:46:52.548Z,7.00
2019-03-25T19:49:22.855Z,7.10
2019-03-25T19:51:52.883Z,7.00
2019-03-25T19:54:22.986Z,7.10
2019-03-25T19:56:54.340Z,7.00
2019-03-25T19:59:25.451Z,7.00
2019-03-25T20:01:55.443Z,7.10
2019-03-25T20:04:25.411Z,7.00
2019-03-25T20:06:56.733Z,6.80
2019-03-25T20:09:26.516Z,6.80
2019-03-25T20:11:57.896Z,6.70
2019-03-25T20:14:27.672Z,6.70
2019-03-25T20:16:57.489Z,6.70
2019-03-25T20:19:27.171Z,6.60
2019-03-25T20:21:57.276Z,6.50
2019-03-25T20:24:26.937Z,6.40
2019-03-25T20:26:56.890Z,6.50
2019-03-25T20:29:26.697Z,6.60
2019-03-25T20:31:56.680Z,6.70
2019-03-25T20:34:26.742Z,6.70
2019-03-25T20:36:56.542Z,6.80
2019-03-25T20:39:26.305Z,6.90
2019-03-25T20:41:56.296Z,6.80
2019-03-25T20:44:25.955Z,6.80
2019-03-25T20:46:56.133Z,6.70
2019-03-25T20:49:25.932Z,6.60
2019-03-25T20:51:55.758Z,6.50
2019-03-25T20:54:25.627Z,6.30
2019-03-25T20:56:55.420Z,6.30
2019-03-25T20:59:25.202Z,6.30
2019-03-25T21:01:54.914Z,6.40
2019-03-25T21:04:24.624Z,6.40
2019-03-25T21:06:54.748Z,6.40
2019-03-25T21:10:43.596Z,6.30
2019-03-25T21:13:13.465Z,6.40
2019-03-25T21:15:43.255Z,6.40
2019-03-25T21:18:13.274Z,6.40
2019-03-25T21:20:43.127Z,6.40
2019-03-25T21:23:12.862Z,6.20
2019-03-25T21:25:42.610Z,6.10
2019-03-25T21:28:12.880Z,6.00
2019-03-25T21:30:48.289Z,5.90
2019-03-25T21:33:14.555Z,5.80
2019-03-25T21:35:45.051Z,5.70
2019-03-25T21:38:15.156Z,5.70
2019-03-25T21:40:45.447Z,5.80
2019-03-25T21:43:15.364Z,5.90
2019-03-25T21:45:45.195Z,5.90
2019-03-25T21:48:14.931Z,6.00
2019-03-25T21:50:45.050Z,6.10
2019-03-25T21:53:14.849Z,6.00
2019-03-25T21:55:44.637Z,6.00
2019-03-25T21:58:14.470Z,5.90
2019-03-25T22:00:44.834Z,5.90
2019-03-25T22:03:14.599Z,5.80
2019-03-25T22:05:44.389Z,5.60
2019-03-25T22:08:14.443Z,5.50
2019-03-25T22:10:44.228Z,5.40
2019-03-25T22:13:14.194Z,5.30
2019-03-25T22:15:43.958Z,5.20
2019-03-25T22:18:13.627Z,5.10
2019-03-25T22:20:43.731Z,5.00
2019-03-25T22:23:13.518Z,4.90
2019-03-25T22:26:02.845Z,4.80
2019-03-25T22:28:32.642Z,4.80
2019-03-25T22:31:02.491Z,4.80
2019-03-25T22:33:32.315Z,4.70
2019-03-25T22:36:02.443Z,4.60
2019-03-25T22:38:32.551Z,4.60
2019-03-25T22:41:02.558Z,4.60
2019-03-25T22:43:32.698Z,4.50
2019-03-25T22:46:02.546Z,4.50
2019-03-25T22:48:32.426Z,4.40
2019-03-25T22:51:02.216Z,4.40
2019-03-25T22:53:31.892Z,4.40
2019-03-25T22:56:01.735Z,4.40
2019-03-25T22:58:31.559Z,4.40
2019-03-25T23:01:02.752Z,4.30
2019-03-25T23:03:38.975Z,4.30
2019-03-25T23:06:04.135Z,4.20
2019-03-25T23:08:34.013Z,4.20
2019-03-25T23:11:03.846Z,4.20
2019-03-25T23:13:33.718Z,4.10
2019-03-25T23:16:03.567Z,4.20
2019-03-25T23:18:33.760Z,4.10
2019-03-25T23:21:03.716Z,4.10
2019-03-25T23:23:34.023Z,4.00
2019-03-25T23:26:03.850Z,4.00
2019-03-25T23:28:33.662Z,4.00
2019-03-25T23:31:03.510Z,4.00
2019-03-25T23:33:33.389Z,4.10
2019-03-25T23:36:03.239Z,4.00
2019-03-25T23:38:32.940Z,4.00
2019-03-25T23:41:02.924Z,4.00
2019-03-25T23:43:32.803Z,4.00
2019-03-25T23:46:02.849Z,3.90
2019-03-25T23:48:32.726Z,3.90
2019-03-25T23:51:02.520Z,3.90
2019-03-25T23:53:32.350Z,3.90
2019-03-25T23:56:02.147Z,3.90
2019-03-25T23:58:32.183Z,3.80
